createdAt,value
2022-08-24T00:00:41.328Z,3.78
2022-08-24T00:03:45.715Z,4.07
2022-08-24T00:06:49.887Z,5.82
2022-08-24T00:09:52.493Z,5.93
2022-08-24T00:12:55.003Z,4.68
2022-08-24T00:15:57.907Z,5.13
2022-08-24T00:19:02.302Z,6.25
2022-08-24T00:22:06.707Z,6.35
2022-08-24T00:25:11.333Z,5.47
2022-08-24T00:28:14.126Z,5.43
2022-08-24T00:31:17.790Z,6.53
2022-08-24T00:34:20.507Z,5.97
2022-08-24T00:37:25.417Z,4.97
2022-08-24T00:40:33.982Z,6.28
2022-08-24T00:43:36.695Z,4.68
2022-08-24T00:46:49.017Z,5.60
2022-08-24T00:49:57.655Z,5.70
2022-08-24T00:53:07.193Z,6.07
2022-08-24T00:56:15.425Z,6.57
2022-08-24T00:59:22.246Z,5.80
2022-08-24T01:02:30.229Z,5.97
2022-08-24T01:05:33.781Z,4.10
2022-08-24T01:08:37.635Z,3.47
2022-08-24T01:11:41.201Z,5.47
2022-08-24T01:14:44.466Z,4.38
2022-08-24T01:18:08.473Z,4.05
2022-08-24T01:21:16.147Z,4.13
2022-08-24T01:24:20.063Z,4.70
2022-08-24T01:27:27.862Z,5.05
2022-08-24T01:30:36.380Z,4.88
2022-08-24T01:33:39.374Z,6.05
2022-08-24T01:36:45.716Z,5.65
2022-08-24T01:39:51.173Z,6.57
2022-08-24T01:42:54.178Z,6.20
2022-08-24T01:45:56.872Z,7.25
2022-08-24T01:49:00.311Z,6.50
2022-08-24T01:52:03.542Z,6.88
2022-08-24T01:55:08.991Z,5.40
2022-08-24T01:58:11.519Z,5.25
2022-08-24T02:01:14.934Z,6.13
2022-08-24T02:04:17.615Z,6.28
2022-08-24T02:07:20.550Z,8.05
2022-08-24T02:10:24.555Z,6.72
2022-08-24T02:13:28.711Z,6.25
2022-08-24T02:16:31.283Z,5.68
2022-08-24T02:19:34.163Z,7.15
2022-08-24T02:22:36.657Z,6.43
2022-08-24T02:25:40.481Z,7.00
2022-08-24T02:28:43.314Z,6.20
2022-08-24T02:31:45.967Z,7.45
2022-08-24T02:34:48.473Z,7.45
2022-08-24T02:37:52.207Z,6.03
2022-08-24T02:40:57.866Z,7.97
2022-08-24T02:44:00.942Z,5.85
2022-08-24T02:47:03.427Z,6.82
2022-08-24T02:50:07.824Z,7.93
2022-08-24T02:53:11.165Z,6.18
2022-08-24T02:56:15.129Z,6.70
2022-08-24T02:59:18.370Z,5.75
2022-08-24T03:02:20.926Z,5.95
2022-08-24T03:05:25.009Z,6.63
2022-08-24T03:08:27.544Z,6.90
2022-08-24T03:11:33.128Z,7.40
2022-08-24T03:14:36.018Z,6.57
2022-08-24T03:17:39.950Z,7.25
2022-08-24T03:20:43.875Z,6.75
2022-08-24T03:23:46.379Z,6.72
2022-08-24T03:26:50.241Z,6.32
2022-08-24T03:29:52.978Z,6.88
2022-08-24T03:32:57.021Z,6.72
2022-08-24T03:35:59.669Z,6.50
2022-08-24T03:39:02.165Z,6.70
2022-08-24T03:42:06.843Z,5.25
2022-08-24T03:45:11.028Z,5.43
2022-08-24T03:48:15.623Z,5.88
2022-08-24T03:51:20.074Z,5.75
2022-08-24T03:54:22.603Z,6.20
2022-08-24T03:57:26.443Z,6.30
2022-08-24T04:00:28.958Z,6.32
2022-08-24T04:03:32.522Z,5.60
2022-08-24T04:06:35.960Z,4.72
2022-08-24T04:09:38.537Z,5.07
2022-08-24T04:12:42.334Z,4.40
2022-08-24T04:15:46.351Z,5.55
2022-08-24T04:18:49.301Z,4.68
2022-08-24T04:21:51.784Z,4.30
2022-08-24T04:24:54.803Z,4.70
2022-08-24T04:27:58.644Z,4.88
2022-08-24T04:31:01.201Z,4.90
2022-08-24T04:34:04.086Z,5.85
2022-08-24T04:37:11.258Z,7.40
2022-08-24T04:40:14.020Z,6.25
2022-08-24T04:43:20.092Z,6.07
2022-08-24T04:46:22.904Z,7.03
2022-08-24T04:49:25.415Z,8.52
2022-08-24T04:52:29.120Z,9.98
2022-08-24T04:55:31.717Z,8.23
2022-08-24T04:58:35.544Z,9.07
2022-08-24T05:01:38.026Z,7.18
2022-08-24T05:04:40.553Z,7.63
2022-08-24T05:07:44.967Z,8.60
2022-08-24T05:10:50.542Z,9.05
2022-08-24T05:13:55.636Z,8.45
2022-08-24T05:16:58.230Z,9.63
2022-08-24T05:20:00.921Z,11.65
2022-08-24T05:23:04.643Z,13.57
2022-08-24T05:26:10.223Z,14.55
2022-08-24T05:29:14.461Z,12.77
2022-08-24T05:32:19.129Z,13.73
2022-08-24T05:35:21.987Z,13.23
2022-08-24T05:38:24.475Z,14.02
2022-08-24T05:41:27.711Z,16.55
2022-08-24T05:44:31.897Z,16.38
2022-08-24T05:47:35.412Z,14.20
2022-08-24T05:50:38.072Z,14.95
2022-08-24T05:53:40.978Z,15.18
2022-08-24T05:56:44.718Z,15.55
2022-08-24T05:59:48.927Z,14.88
2022-08-24T06:02:52.902Z,14.75
2022-08-24T06:05:55.899Z,14.77
2022-08-24T06:09:01.550Z,14.65
2022-08-24T06:12:04.619Z,14.85
2022-08-24T06:15:09.666Z,14.15
2022-08-24T06:18:12.293Z,14.43
2022-08-24T06:21:17.676Z,12.23
2022-08-24T06:24:42.117Z,11.77
2022-08-24T06:27:45.205Z,11.27
2022-08-24T06:30:48.999Z,12.52
2022-08-24T06:33:52.814Z,12.02
2022-08-24T06:36:55.281Z,11.75
2022-08-24T06:39:59.841Z,11.85
2022-08-24T06:43:04.687Z,11.65
2022-08-24T06:46:08.702Z,12.55
2022-08-24T06:49:11.299Z,11.07
2022-08-24T06:52:13.999Z,11.55
2022-08-24T06:55:16.715Z,11.73
2022-08-24T06:58:20.140Z,11.80
2022-08-24T07:01:27.470Z,11.32
2022-08-24T07:04:30.210Z,11.32
2022-08-24T07:07:32.689Z,10.80
2022-08-24T07:10:35.674Z,11.30
2022-08-24T07:13:38.736Z,11.55
2022-08-24T07:16:42.842Z,11.95
2022-08-24T07:19:46.271Z,12.05
2022-08-24T07:22:48.848Z,12.00
2022-08-24T07:25:55.495Z,12.48
2022-08-24T07:29:05.128Z,13.32
2022-08-24T07:32:10.165Z,13.63
2022-08-24T07:35:12.737Z,14.05
2022-08-24T07:38:15.281Z,13.90
2022-08-24T07:41:40.459Z,14.77
2022-08-24T07:44:40.527Z,13.77
2022-08-24T07:47:54.587Z,16.00
2022-08-24T07:50:59.568Z,13.43
2022-08-24T07:54:03.590Z,13.45
2022-08-24T07:57:09.906Z,12.98
2022-08-24T08:00:15.810Z,12.48
2022-08-24T08:03:19.778Z,10.18
2022-08-24T08:06:22.254Z,10.75
2022-08-24T08:09:24.801Z,9.90
2022-08-24T08:12:27.454Z,9.88
2022-08-24T08:15:29.973Z,10.35
2022-08-24T08:18:34.838Z,9.55
2022-08-24T08:21:59.982Z,9.35
2022-08-24T08:25:02.487Z,8.88
2022-08-24T08:28:18.433Z,8.05
2022-08-24T08:31:28.137Z,8.23
2022-08-24T08:34:32.233Z,9.00
2022-08-24T08:40:56.374Z,7.55
2022-08-24T08:44:04.370Z,7.55
2022-08-24T08:47:18.116Z,7.38
2022-08-24T08:50:27.243Z,7.18
2022-08-24T08:54:02.857Z,7.13
2022-08-24T08:57:19.074Z,6.97
2022-08-24T09:00:24.558Z,7.00
2022-08-24T09:03:38.947Z,7.55
2022-08-24T09:06:52.014Z,6.60
2022-08-24T09:10:10.147Z,6.40
2022-08-24T09:13:26.905Z,5.82
2022-08-24T09:16:48.226Z,6.45
2022-08-24T09:20:08.850Z,5.43
2022-08-24T09:23:22.648Z,5.47
2022-08-24T09:26:29.173Z,5.60
2022-08-24T09:29:48.232Z,5.78
2022-08-24T09:33:06.243Z,5.90
2022-08-24T09:36:13.032Z,5.72
2022-08-24T09:39:37.091Z,5.32
2022-08-24T09:43:07.775Z,5.40
2022-08-24T09:46:50.743Z,5.20
2022-08-24T09:50:11.324Z,5.07
2022-08-24T09:53:38.145Z,5.50
2022-08-24T09:57:12.175Z,5.38
2022-08-24T10:00:22.567Z,4.82
2022-08-24T10:03:40.007Z,4.32
2022-08-24T10:06:55.531Z,5.25
2022-08-24T10:10:16.810Z,4.35
2022-08-24T10:16:39.647Z,4.22
2022-08-24T10:19:57.891Z,5.03
2022-08-24T10:23:30.445Z,4.43
2022-08-24T10:26:42.038Z,5.53
2022-08-24T10:30:11.247Z,3.58
2022-08-24T10:33:21.225Z,4.28
2022-08-24T10:36:49.928Z,4.03
2022-08-24T10:40:14.311Z,3.85
2022-08-24T10:43:42.983Z,4.10
2022-08-24T10:46:56.613Z,3.85
2022-08-24T10:50:31.106Z,4.40
2022-08-24T10:53:34.685Z,3.33
2022-08-24T10:56:42.360Z,4.68
2022-08-24T10:59:53.674Z,3.35
2022-08-24T11:03:11.471Z,3.88
2022-08-24T11:06:16.554Z,3.42
2022-08-24T11:09:20.078Z,3.78
2022-08-24T11:12:26.386Z,4.50
2022-08-24T11:15:29.660Z,4.30
2022-08-24T11:18:49.781Z,4.22
2022-08-24T11:21:54.546Z,3.83
2022-08-24T11:25:00.491Z,3.85
2022-08-24T11:28:06.092Z,3.45
2022-08-24T11:31:12.480Z,3.35
2022-08-24T11:34:19.617Z,4.25
2022-08-24T11:37:27.105Z,3.42
2022-08-24T11:40:38.523Z,3.38
2022-08-24T11:43:58.857Z,3.80
2022-08-24T11:47:07.921Z,4.43
2022-08-24T11:50:23.470Z,4.30
2022-08-24T11:57:02.858Z,3.90
2022-08-24T12:00:10.399Z,3.75
2022-08-24T12:03:25.916Z,3.42
2022-08-24T12:06:41.898Z,3.75
2022-08-24T12:10:00.252Z,3.97
2022-08-24T12:13:10.999Z,3.90
2022-08-24T12:16:21.428Z,4.15
2022-08-24T12:19:29.742Z,3.88
2022-08-24T12:22:34.047Z,4.15
2022-08-24T12:25:55.277Z,3.50
2022-08-24T12:32:10.315Z,4.00
2022-08-24T12:35:22.577Z,4.40
2022-08-24T12:38:32.696Z,4.57
2022-08-24T12:41:40.894Z,4.68
2022-08-24T12:44:50.130Z,4.82
2022-08-24T12:47:58.894Z,4.22
2022-08-24T12:51:14.565Z,4.30
2022-08-24T12:54:35.632Z,4.45
2022-08-24T12:57:54.579Z,4.80
2022-08-24T13:01:01.577Z,4.78
2022-08-24T13:04:11.770Z,5.05
2022-08-24T13:07:30.674Z,4.60
2022-08-24T13:10:42.279Z,4.38
2022-08-24T13:13:48.302Z,4.90
2022-08-24T13:17:09.542Z,4.43
2022-08-24T13:23:25.222Z,5.15
2022-08-24T13:26:29.234Z,4.38
2022-08-24T13:29:35.477Z,5.45
2022-08-24T13:32:44.879Z,5.82
2022-08-24T13:36:03.891Z,5.35
2022-08-24T13:39:18.308Z,6.00
2022-08-24T13:42:46.338Z,5.32
2022-08-24T13:45:57.246Z,6.28
2022-08-24T13:49:03.864Z,6.28
2022-08-24T13:52:15.902Z,6.05
2022-08-24T13:55:36.781Z,6.25
2022-08-24T13:58:46.129Z,6.38
2022-08-24T14:02:08.368Z,5.97
2022-08-24T14:05:24.222Z,6.55
2022-08-24T14:08:42.875Z,6.88
2022-08-24T14:12:07.293Z,7.65
2022-08-24T14:15:27.016Z,7.38
2022-08-24T14:18:37.908Z,8.02
2022-08-24T14:21:46.544Z,7.95
2022-08-24T14:25:06.091Z,9.02
2022-08-24T14:28:37.161Z,9.52
2022-08-24T14:31:41.505Z,7.85
2022-08-24T14:34:53.160Z,8.18
2022-08-24T14:38:12.472Z,7.55
2022-08-24T14:41:20.612Z,8.93
2022-08-24T14:44:52.720Z,10.05
2022-08-24T14:48:05.484Z,11.70
2022-08-24T14:51:19.001Z,10.73
2022-08-24T14:54:32.458Z,12.82
2022-08-24T14:57:57.617Z,11.02
2022-08-24T15:01:13.095Z,12.30
2022-08-24T15:04:40.435Z,11.38
2022-08-24T15:07:53.793Z,9.68
2022-08-24T15:10:59.916Z,9.20
2022-08-24T15:14:05.808Z,8.80
2022-08-24T15:17:12.095Z,9.02
2022-08-24T15:20:21.058Z,7.70
2022-08-24T15:23:34.223Z,7.25
2022-08-24T15:26:51.039Z,7.40
2022-08-24T15:29:57.190Z,7.45
2022-08-24T15:33:06.360Z,6.70
2022-08-24T15:36:13.157Z,5.68
2022-08-24T15:39:27.093Z,6.25
2022-08-24T15:42:33.306Z,6.43
2022-08-24T15:45:48.355Z,5.60
2022-08-24T15:48:51.336Z,5.25
2022-08-24T15:51:58.447Z,5.97
2022-08-24T15:55:03.645Z,4.90
2022-08-24T15:58:25.615Z,5.30
2022-08-24T16:01:45.623Z,4.20
2022-08-24T16:04:50.169Z,4.53
2022-08-24T16:08:09.380Z,4.03
2022-08-24T16:11:27.439Z,4.35
2022-08-24T16:14:33.768Z,3.25
2022-08-24T16:17:41.359Z,3.80
2022-08-24T16:20:46.197Z,3.40
2022-08-24T16:24:01.312Z,3.65
2022-08-24T16:27:08.060Z,4.18
2022-08-24T16:30:24.559Z,3.65
2022-08-24T16:33:43.073Z,3.70
2022-08-24T16:36:48.699Z,3.40
2022-08-24T16:39:54.654Z,3.25
2022-08-24T16:42:57.586Z,3.25
2022-08-24T16:46:02.310Z,3.25
2022-08-24T16:49:04.874Z,3.40
2022-08-24T16:52:16.118Z,3.35
2022-08-24T16:55:19.957Z,3.67
2022-08-24T16:58:30.619Z,3.28
2022-08-24T17:01:33.182Z,4.00
2022-08-24T17:04:35.758Z,3.70
2022-08-24T17:07:38.352Z,3.97
2022-08-24T17:10:43.859Z,4.20
2022-08-24T17:13:50.228Z,4.50
2022-08-24T17:16:52.992Z,4.60
2022-08-24T17:19:56.555Z,4.97
2022-08-24T17:22:59.402Z,4.57
2022-08-24T17:26:09.530Z,4.07
2022-08-24T17:29:22.338Z,4.32
2022-08-24T17:32:25.613Z,4.95
2022-08-24T17:35:28.411Z,5.07
2022-08-24T17:38:31.486Z,4.93
2022-08-24T17:41:36.063Z,5.00
2022-08-24T17:44:39.221Z,5.75
2022-08-24T17:47:43.519Z,5.47
2022-08-24T17:50:46.102Z,5.60
2022-08-24T17:53:48.645Z,5.53
2022-08-24T17:56:52.899Z,5.90
2022-08-24T17:59:55.404Z,5.47
2022-08-24T18:02:57.940Z,5.78
2022-08-24T18:06:00.520Z,6.38
2022-08-24T18:09:06.774Z,7.10
2022-08-24T18:12:10.687Z,6.57
2022-08-24T18:15:13.330Z,6.10
2022-08-24T18:18:15.818Z,6.22
2022-08-24T18:21:20.029Z,6.32
2022-08-24T18:24:22.518Z,6.38
2022-08-24T18:27:29.322Z,6.00
2022-08-24T18:30:32.619Z,6.55
2022-08-24T18:33:35.492Z,6.68
2022-08-24T18:36:38.259Z,6.55
2022-08-24T18:39:40.734Z,6.72
2022-08-24T18:42:45.405Z,6.10
2022-08-24T18:45:47.964Z,6.40
2022-08-24T18:48:50.529Z,6.88
2022-08-24T18:51:53.284Z,6.68
2022-08-24T18:54:55.875Z,6.43
2022-08-24T18:58:00.204Z,6.38
2022-08-24T19:01:03.331Z,5.82
2022-08-24T19:04:11.996Z,6.90
2022-08-24T19:07:16.792Z,5.37
2022-08-24T19:10:21.855Z,5.63
2022-08-24T19:13:27.425Z,5.22
2022-08-24T19:16:30.384Z,5.85
2022-08-24T19:19:33.176Z,5.47
2022-08-24T19:22:36.368Z,5.43
2022-08-24T19:25:41.470Z,5.25
2022-08-24T19:28:45.287Z,4.85
2022-08-24T19:31:48.446Z,5.57
2022-08-24T19:34:51.399Z,5.03
2022-08-24T19:37:53.921Z,5.10
2022-08-24T19:40:58.046Z,5.38
2022-08-24T19:44:27.446Z,4.85
2022-08-24T19:47:30.455Z,5.55
2022-08-24T19:50:35.855Z,5.10
2022-08-24T19:53:38.872Z,5.32
2022-08-24T19:56:41.517Z,5.47
2022-08-24T19:59:45.718Z,6.07
2022-08-24T20:02:49.179Z,5.13
2022-08-24T20:05:51.911Z,5.03
2022-08-24T20:08:54.735Z,5.68
2022-08-24T20:11:57.231Z,5.13
2022-08-24T20:15:01.032Z,4.85
2022-08-24T20:18:03.720Z,5.45
2022-08-24T20:21:07.282Z,5.55
2022-08-24T20:24:11.211Z,5.90
2022-08-24T20:27:18.275Z,4.97
2022-08-24T20:30:22.637Z,5.72
2022-08-24T20:33:27.693Z,5.32
2022-08-24T20:36:36.255Z,5.88
2022-08-24T20:39:39.414Z,5.35
2022-08-24T20:42:42.639Z,4.95
2022-08-24T20:45:46.461Z,6.18
2022-08-24T20:48:55.579Z,6.25
2022-08-24T20:51:59.986Z,5.65
2022-08-24T20:55:04.859Z,5.72
2022-08-24T20:58:07.649Z,5.65
2022-08-24T21:01:11.864Z,5.32
2022-08-24T21:04:14.824Z,5.75
2022-08-24T21:07:17.350Z,5.15
2022-08-24T21:10:24.874Z,5.18
2022-08-24T21:13:29.358Z,5.68
2022-08-24T21:16:34.161Z,4.85
2022-08-24T21:19:36.671Z,4.53
2022-08-24T21:22:39.196Z,4.80
2022-08-24T21:25:41.783Z,4.88
2022-08-24T21:28:44.897Z,5.53
2022-08-24T21:32:02.699Z,4.82
2022-08-24T21:35:05.932Z,5.90
2022-08-24T21:38:08.482Z,5.50
2022-08-24T21:41:11.041Z,5.28
2022-08-24T21:44:13.560Z,4.70
2022-08-24T21:47:17.415Z,4.65
2022-08-24T21:50:20.026Z,4.88
2022-08-24T21:53:28.424Z,5.15
2022-08-24T21:56:33.329Z,5.13
2022-08-24T21:59:36.039Z,5.78
2022-08-24T22:02:39.930Z,5.07
2022-08-24T22:05:42.456Z,5.30
2022-08-24T22:08:45.235Z,6.13
2022-08-24T22:11:47.722Z,5.68
2022-08-24T22:14:50.317Z,5.43
2022-08-24T22:17:55.304Z,5.38
2022-08-24T22:20:57.791Z,5.40
2022-08-24T22:24:01.000Z,5.88
2022-08-24T22:27:03.634Z,6.13
2022-08-24T22:30:07.270Z,5.97
2022-08-24T22:33:11.127Z,5.82
2022-08-24T22:36:14.689Z,5.82
2022-08-24T22:39:17.629Z,5.55
2022-08-24T22:42:20.175Z,5.57
2022-08-24T22:45:22.687Z,6.53
2022-08-24T22:48:26.698Z,6.60
2022-08-24T22:51:29.477Z,6.57
2022-08-24T22:54:32.385Z,6.63
2022-08-24T22:57:35.039Z,6.68
2022-08-24T23:00:39.705Z,6.03
2022-08-24T23:03:43.605Z,6.20
2022-08-24T23:06:52.983Z,6.53
2022-08-24T23:09:55.473Z,5.72
2022-08-24T23:12:59.373Z,7.15
2022-08-24T23:16:01.951Z,6.93
2022-08-24T23:19:24.208Z,6.97
2022-08-24T23:22:28.289Z,6.25
2022-08-24T23:25:30.764Z,5.88
2022-08-24T23:28:34.068Z,6.28
2022-08-24T23:31:37.375Z,6.72
2022-08-24T23:34:41.505Z,6.88
2022-08-24T23:37:44.005Z,8.00
2022-08-24T23:40:46.526Z,7.38
2022-08-24T23:43:49.088Z,7.75
2022-08-24T23:46:51.604Z,8.52
2022-08-24T23:49:55.483Z,8.57
2022-08-24T23:52:58.055Z,7.80
2022-08-24T23:56:08.352Z,8.65
2022-08-24T23:59:13.917Z,8.77
